createdAt,value
2022-11-14T00:00:27.788Z,78.80
2022-11-14T00:05:50.042Z,78.60
2022-11-14T00:11:13.458Z,79.40
2022-11-14T00:16:35.686Z,78.50
2022-11-14T00:21:57.455Z,78.50
2022-11-14T00:27:20.900Z,78.40
2022-11-14T00:32:43.275Z,78.50
2022-11-14T00:38:05.350Z,78.40
2022-11-14T00:43:28.975Z,78.50
2022-11-14T00:48:51.019Z,78.50
2022-11-14T00:54:13.131Z,78.40
2022-11-14T00:59:36.775Z,78.50
2022-11-14T01:04:59.053Z,78.50
2022-11-14T01:10:21.833Z,78.60
2022-11-14T01:15:48.775Z,78.60
2022-11-14T01:21:14.750Z,78.60
2022-11-14T01:26:37.084Z,78.50
2022-11-14T01:32:00.403Z,78.50
2022-11-14T01:37:22.668Z,78.70
2022-11-14T01:43:25.201Z,78.80
2022-11-14T01:48:53.807Z,79.40
2022-11-14T01:54:22.426Z,79.90
2022-11-14T01:59:57.378Z,78.90
2022-11-14T02:05:21.286Z,78.50
2022-11-14T02:10:44.082Z,78.10
2022-11-14T02:16:07.654Z,78.80
2022-11-14T02:21:31.161Z,78.00
2022-11-14T02:26:53.051Z,77.80
2022-11-14T02:32:15.293Z,77.90
2022-11-14T02:37:39.039Z,78.10
2022-11-14T02:43:01.473Z,78.10
2022-11-14T02:48:24.609Z,78.10
2022-11-14T02:53:48.047Z,78.30
2022-11-14T02:59:10.194Z,79.10
2022-11-14T03:04:32.292Z,78.40
2022-11-14T03:09:56.068Z,78.30
2022-11-14T03:15:18.421Z,78.30
2022-11-14T03:20:41.303Z,78.60
2022-11-14T03:26:08.030Z,78.80
2022-11-14T03:31:29.968Z,78.90
2022-11-14T03:36:51.963Z,79.00
2022-11-14T03:42:15.561Z,79.00
2022-11-14T03:47:37.724Z,79.00
2022-11-14T03:52:59.907Z,79.00
2022-11-14T03:58:23.904Z,79.00
2022-11-14T04:03:45.973Z,78.90
2022-11-14T04:09:08.556Z,78.70
2022-11-14T04:14:32.203Z,78.50
2022-11-14T04:19:54.208Z,78.40
2022-11-14T04:25:16.391Z,78.20
2022-11-14T04:30:40.120Z,78.10
2022-11-14T04:36:02.412Z,78.60
2022-11-14T04:41:24.618Z,78.50
2022-11-14T04:46:48.239Z,78.60
2022-11-14T04:52:10.400Z,79.30
2022-11-14T04:57:33.003Z,79.30
2022-11-14T05:02:56.281Z,79.30
2022-11-14T05:08:18.577Z,79.40
2022-11-14T05:13:40.838Z,79.40
2022-11-14T05:19:04.401Z,79.40
2022-11-14T05:24:27.358Z,79.50
2022-11-14T05:29:49.565Z,79.90
2022-11-14T05:35:13.418Z,79.80
2022-11-14T05:40:35.620Z,79.90
2022-11-14T05:46:01.802Z,79.80
2022-11-14T05:51:25.042Z,79.50
2022-11-14T05:56:47.063Z,79.70
2022-11-14T06:02:09.233Z,79.60
2022-11-14T06:07:32.868Z,79.60
2022-11-14T06:12:55.150Z,79.40
2022-11-14T06:18:17.482Z,79.50
2022-11-14T06:23:41.380Z,79.40
2022-11-14T06:29:03.305Z,79.40
2022-11-14T06:34:25.403Z,79.20
2022-11-14T06:39:49.109Z,77.90
2022-11-14T06:45:12.292Z,77.30
2022-11-14T06:50:34.660Z,77.00
2022-11-14T06:56:00.981Z,76.90
2022-11-14T07:01:26.125Z,76.40
2022-11-14T07:06:48.061Z,76.50
2022-11-14T07:12:12.537Z,77.00
2022-11-14T07:17:37.081Z,76.90
2022-11-14T07:22:59.070Z,77.40
2022-11-14T07:28:22.477Z,77.70
2022-11-14T07:33:46.438Z,78.00
2022-11-14T07:39:08.722Z,78.50
2022-11-14T07:44:32.174Z,78.40
2022-11-14T07:49:54.446Z,74.80
2022-11-14T07:55:17.103Z,72.40
2022-11-14T08:00:41.432Z,70.70
2022-11-14T08:06:05.923Z,69.20
2022-11-14T08:11:45.577Z,67.70
2022-11-14T08:17:09.214Z,66.90
2022-11-14T08:22:31.827Z,65.90
2022-11-14T08:27:55.103Z,65.40
2022-11-14T08:33:18.649Z,64.90
2022-11-14T08:38:41.009Z,66.50
2022-11-14T08:44:03.169Z,67.00
2022-11-14T08:49:26.977Z,67.70
2022-11-14T08:54:48.936Z,68.60
2022-11-14T09:00:13.304Z,69.30
2022-11-14T09:05:37.985Z,70.00
2022-11-14T09:11:05.502Z,70.60
2022-11-14T09:16:29.080Z,71.20
2022-11-14T09:21:52.584Z,71.60
2022-11-14T09:27:14.868Z,72.00
2022-11-14T09:32:37.481Z,72.40
2022-11-14T09:38:07.036Z,72.70
2022-11-14T09:44:02.737Z,73.00
2022-11-14T09:49:33.228Z,73.30
2022-11-14T09:55:01.800Z,73.70
2022-11-14T10:00:29.152Z,73.80
2022-11-14T10:06:18.965Z,74.20
2022-11-14T10:11:51.746Z,74.30
2022-11-14T10:17:36.572Z,74.50
2022-11-14T10:23:27.801Z,74.80
2022-11-14T10:29:30.963Z,74.90
2022-11-14T10:35:02.674Z,75.00
2022-11-14T10:40:28.119Z,75.50
2022-11-14T10:45:56.031Z,74.10
2022-11-14T10:51:26.519Z,72.40
2022-11-14T10:56:49.012Z,72.50
2022-11-14T11:02:13.075Z,71.50
2022-11-14T11:08:28.366Z,70.80
2022-11-14T11:13:55.942Z,70.80
2022-11-14T11:19:28.335Z,70.90
2022-11-14T11:24:50.532Z,70.10
2022-11-14T11:30:23.728Z,69.40
2022-11-14T11:35:50.498Z,70.20
2022-11-14T11:47:18.505Z,72.10
2022-11-14T11:52:49.353Z,72.40
2022-11-14T11:58:23.400Z,72.60
2022-11-14T12:03:52.645Z,72.80
2022-11-14T12:09:22.780Z,73.10
2022-11-14T12:15:10.025Z,73.30
2022-11-14T12:20:50.182Z,73.50
2022-11-14T12:26:37.218Z,73.80
2022-11-14T12:32:07.349Z,74.00
2022-11-14T12:37:35.802Z,74.20
2022-11-14T12:43:00.805Z,74.30
2022-11-14T12:48:32.382Z,74.50
2022-11-14T12:53:56.072Z,74.60
2022-11-14T12:59:38.172Z,75.10
2022-11-14T13:05:46.806Z,75.50
2022-11-14T13:11:56.538Z,75.70
2022-11-14T13:17:46.113Z,76.00
2022-11-14T13:23:57.043Z,76.10
2022-11-14T13:29:49.748Z,76.10
2022-11-14T13:35:19.813Z,77.00
2022-11-14T13:40:53.221Z,77.20
2022-11-14T13:46:34.745Z,77.10
2022-11-14T13:51:58.449Z,77.00
2022-11-14T13:57:37.448Z,76.90
2022-11-14T14:03:26.042Z,76.90
2022-11-14T14:09:23.143Z,77.00
2022-11-14T14:15:10.201Z,77.00
2022-11-14T14:20:44.151Z,76.90
2022-11-14T14:26:24.441Z,77.00
2022-11-14T14:31:46.787Z,77.00
2022-11-14T14:37:20.180Z,77.70
2022-11-14T14:42:49.243Z,77.00
2022-11-14T14:48:16.860Z,77.00
2022-11-14T14:53:38.941Z,77.10
2022-11-14T14:59:19.013Z,77.10
2022-11-14T15:04:42.499Z,77.10
2022-11-14T15:10:07.801Z,77.10
2022-11-14T15:15:32.222Z,77.10
2022-11-14T15:21:24.780Z,77.10
2022-11-14T15:26:51.075Z,77.10
2022-11-14T15:32:23.262Z,77.30
2022-11-14T15:44:03.003Z,77.20
2022-11-14T15:49:28.817Z,77.30
2022-11-14T15:54:51.200Z,77.30
2022-11-14T16:00:16.556Z,77.30
2022-11-14T16:05:40.003Z,77.30
2022-11-14T16:11:02.237Z,77.30
2022-11-14T16:16:24.410Z,77.40
2022-11-14T16:21:48.010Z,77.40
2022-11-14T16:27:11.623Z,77.50
2022-11-14T16:32:33.780Z,77.50
2022-11-14T16:37:57.831Z,77.50
2022-11-14T16:43:19.785Z,77.50
2022-11-14T16:48:42.480Z,77.60
2022-11-14T16:54:06.357Z,77.50
2022-11-14T16:59:28.821Z,77.60
2022-11-14T17:04:51.155Z,77.60
2022-11-14T17:10:14.844Z,77.60
2022-11-14T17:15:36.930Z,77.70
2022-11-14T17:20:58.977Z,77.70
2022-11-14T17:26:22.660Z,77.70
2022-11-14T17:31:47.229Z,77.70
2022-11-14T17:37:09.874Z,77.70
2022-11-14T17:42:33.778Z,77.70
2022-11-14T17:47:55.804Z,77.70
2022-11-14T17:53:18.416Z,77.80
2022-11-14T17:58:41.917Z,77.80
2022-11-14T18:04:06.390Z,77.80
2022-11-14T18:09:30.536Z,77.80
2022-11-14T18:14:54.409Z,77.90
2022-11-14T18:20:17.476Z,77.90
2022-11-14T18:25:39.611Z,77.80
2022-11-14T18:31:04.687Z,77.80
2022-11-14T18:36:27.115Z,77.80
2022-11-14T18:41:49.456Z,77.90
2022-11-14T18:47:13.621Z,77.90
2022-11-14T18:52:35.886Z,77.90
2022-11-14T18:57:58.176Z,78.00
2022-11-14T19:03:21.780Z,77.90
2022-11-14T19:08:44.172Z,78.00
2022-11-14T19:14:08.197Z,78.00
2022-11-14T19:19:32.164Z,77.70
2022-11-14T19:24:54.346Z,76.40
2022-11-14T19:30:17.591Z,75.70
2022-11-14T19:35:41.071Z,75.30
2022-11-14T19:41:08.908Z,75.10
2022-11-14T19:46:31.221Z,75.00
2022-11-14T19:51:54.741Z,75.20
2022-11-14T19:57:17.064Z,75.40
2022-11-14T20:02:40.621Z,75.60
2022-11-14T20:08:04.150Z,75.90
2022-11-14T20:13:26.653Z,77.10
2022-11-14T20:18:57.506Z,76.80
2022-11-14T20:24:24.341Z,76.90
2022-11-14T20:29:46.757Z,76.70
2022-11-14T20:35:09.703Z,76.60
2022-11-14T20:40:34.333Z,76.60
2022-11-14T20:45:59.097Z,76.50
2022-11-14T20:51:23.649Z,76.80
2022-11-14T20:56:46.989Z,76.80
2022-11-14T21:02:11.158Z,77.00
2022-11-14T21:07:34.196Z,76.90
2022-11-14T21:13:17.758Z,77.00
2022-11-14T21:18:45.228Z,77.10
2022-11-14T21:24:10.106Z,77.10
2022-11-14T21:29:33.557Z,77.20
2022-11-14T21:34:55.548Z,77.30
2022-11-14T21:40:18.187Z,77.50
2022-11-14T21:45:41.634Z,77.50
2022-11-14T21:51:09.645Z,77.50
2022-11-14T21:56:34.116Z,76.90
2022-11-14T22:02:15.415Z,75.90
2022-11-14T22:07:41.323Z,74.80
2022-11-14T22:13:03.706Z,74.80
2022-11-14T22:18:26.919Z,74.70
2022-11-14T22:23:49.576Z,74.70
2022-11-14T22:29:11.766Z,75.00
2022-11-14T22:34:35.081Z,75.10
2022-11-14T22:39:57.442Z,75.20
2022-11-14T22:45:19.655Z,75.40
2022-11-14T22:50:43.185Z,75.60
2022-11-14T22:56:09.282Z,75.80
2022-11-14T23:01:34.187Z,76.00
2022-11-14T23:06:57.639Z,76.20
2022-11-14T23:12:19.696Z,76.40
2022-11-14T23:17:42.077Z,76.60
2022-11-14T23:23:05.751Z,77.40
2022-11-14T23:28:28.090Z,77.50
2022-11-14T23:33:53.261Z,76.80
2022-11-14T23:39:16.617Z,76.50
2022-11-14T23:44:38.844Z,76.50
2022-11-14T23:50:00.853Z,76.50
2022-11-14T23:55:24.023Z,76.60
